Portada
METAR-TAF:

METAR-TAF

Aeroports :

Xi'an, Xina

latitud: 34-26N, longitud: 108-45E, altitud: 479 m

Observació

L'informe es va fer fa 45 minuts, a les 20:00 UTC
Vent 6 kt del Nord
Temperatura 8°C
Humitat 87%
Pressió 1024 hPa
Visibilitat 10 km o més
Cel ennuvolat a una alçada de 6000 ft

METAR: ZLXY 132000Z 01003MPS 9999 BKN060 08/06 Q1024 NOSIG

Hora: 04:45 (20:45 UTC)

Pronòstic

L'informe es va fer fa 5 hores i 42 minuts, a les 15:03 UTC
Pronòstic vàlid del 13 a les 18 UTC al 14 a les 18 UTC
Vent 6 kt del Est/Nord-Est
Visibilitat: 6000 m

TAF: ZLXY 131503Z 1318/1418 06003MPS 6000 NSC TX18/1407Z TN08/1322Z

Observacions i pronòstics meteorològics de més de 4000 aeroports (METAR i TAF).

Les estacions disponibles són els punts grocs i vermells al mapa.

Posi el ratolí al punt desitjat per veure el nom de l'estació.

Feu clic per veure les observacions i els pronòstics meteorològics.

Per canviar el mapa: feu clic els botons verds amb una creu de color negre per apropar; al botó verd amb un guió per allunyar la imatge; o en les fletxes verdes per a mapes adjacents.


METAR-TAF: